Time;durP1;ratioP1;P1;durP2;ratioP2;P2;SDS_P1;SDS_P2;PMS_P1;PMS_P2;Temp;Humidity;BMP_temperature;BMP_pressure;BME280_temperature;BME280_humidity;BME280_pressure;Samples;Min_cycle;Max_cycle;Signal;HPM_P1;HPM_P2
2022/08/23 00:01:31;;;;;;;13.85;7.00;;;;;;;;;;5066297;28;20074;-64
2022/08/23 00:04:00;;;;;;;12.52;6.68;;;;;;;;;;5069073;28;20102;-63
2022/08/23 00:06:28;;;;;;;11.88;7.03;;;;;;;;;;5066641;28;20045;-63
2022/08/23 00:08:57;;;;;;;12.02;6.60;;;;;;;;;;5065958;28;20071;-63
2022/08/23 00:11:26;;;;;;;14.05;7.35;;;;;;;;;;5064695;28;20048;-63
2022/08/23 00:13:53;;;;;;;11.65;6.82;;;;;;;;;;5066167;28;20048;-63
2022/08/23 00:16:20;;;;;;;13.80;6.80;;;;;;;;;;5067494;28;20041;-63
2022/08/23 00:18:48;;;;;;;9.40;6.53;;;;;;;;;;5065706;28;20052;-63
2022/08/23 00:21:15;;;;;;;13.45;6.60;;;;;;;;;;5068046;28;20068;-63
2022/08/23 00:23:42;;;;;;;13.73;7.78;;;;;;;;;;5066276;28;20045;-63
2022/08/23 00:26:11;;;;;;;14.32;7.50;;;;;;;;;;5067332;28;20166;-63
2022/08/23 00:28:39;;;;;;;17.27;7.95;;;;;;;;;;5063797;28;20064;-63
2022/08/23 00:31:06;;;;;;;11.02;7.32;;;;;;;;;;5060521;28;20052;-65
2022/08/23 00:33:34;;;;;;;11.85;7.32;;;;;;;;;;5063403;28;20044;-63
2022/08/23 00:36:01;;;;;;;12.85;7.43;;;;;;;;;;5060192;28;20041;-65
2022/08/23 00:38:28;;;;;;;15.55;8.00;;;;;;;;;;5054441;28;20048;-63
2022/08/23 00:40:56;;;;;;;13.57;7.90;;;;;;;;;;5060486;28;20052;-64
2022/08/23 00:49:02;;;;;;;16.52;7.68;;;;;;;;;;5061049;28;20074;-64
2022/08/23 00:51:34;;;;;;;12.27;7.65;;;;;;;;;;5068966;28;20429;-65
2022/08/23 00:54:01;;;;;;;11.20;6.70;;;;;;;;;;5069919;28;20152;-63
2022/08/23 00:56:30;;;;;;;12.73;7.40;;;;;;;;;;5064084;28;20123;-63
2022/08/23 00:58:58;;;;;;;14.70;7.20;;;;;;;;;;5064501;28;20190;-63
2022/08/23 01:01:26;;;;;;;11.05;7.18;;;;;;;;;;5067129;28;20044;-63
2022/08/23 01:03:55;;;;;;;13.48;6.60;;;;;;;;;;5061560;28;20522;-62
2022/08/23 01:06:24;;;;;;;12.75;6.63;;;;;;;;;;5063532;28;20048;-64
2022/08/23 01:08:57;;;;;;;13.63;6.85;;;;;;;;;;5063183;28;20044;-64
2022/08/23 01:11:27;;;;;;;8.98;6.10;;;;;;;;;;5064814;28;20150;-63
2022/08/23 01:13:57;;;;;;;15.18;7.95;;;;;;;;;;5062107;28;20067;-63
2022/08/23 01:16:28;;;;;;;9.68;6.18;;;;;;;;;;5062726;28;20044;-63
2022/08/23 01:18:56;;;;;;;15.48;7.13;;;;;;;;;;5057163;28;20059;-63
2022/08/23 01:21:26;;;;;;;10.80;7.38;;;;;;;;;;5062411;28;20118;-63
2022/08/23 01:23:56;;;;;;;12.00;6.80;;;;;;;;;;5057331;28;20045;-63
2022/08/23 01:26:24;;;;;;;12.88;7.00;;;;;;;;;;5064077;28;20106;-64
2022/08/23 01:28:51;;;;;;;14.20;7.47;;;;;;;;;;5062325;28;20078;-63
2022/08/23 01:31:19;;;;;;;12.15;6.90;;;;;;;;;;5060147;28;20047;-63
2022/08/23 01:33:47;;;;;;;9.82;6.55;;;;;;;;;;5058235;28;20055;-63
2022/08/23 01:36:16;;;;;;;9.85;6.25;;;;;;;;;;5055113;28;20041;-64
2022/08/23 01:38:43;;;;;;;15.00;7.28;;;;;;;;;;5055300;28;20056;-62
2022/08/23 01:41:12;;;;;;;9.20;6.60;;;;;;;;;;5062675;28;20048;-62
2022/08/23 01:43:39;;;;;;;11.65;6.88;;;;;;;;;;5067602;28;20104;-63
2022/08/23 01:46:10;;;;;;;12.52;7.10;;;;;;;;;;5064976;28;20514;-63
2022/08/23 01:48:37;;;;;;;13.88;7.03;;;;;;;;;;5059915;28;20056;-63
2022/08/23 01:51:06;;;;;;;11.30;7.40;;;;;;;;;;5061826;28;20049;-65
2022/08/23 01:53:33;;;;;;;12.05;6.57;;;;;;;;;;5060951;28;20087;-65
2022/08/23 01:56:01;;;;;;;11.43;6.32;;;;;;;;;;5060304;28;20114;-63
2022/08/23 01:58:31;;;;;;;11.20;7.00;;;;;;;;;;5066559;28;20149;-64
2022/08/23 02:00:59;;;;;;;11.40;6.88;;;;;;;;;;5066647;28;20048;-63
2022/08/23 02:03:27;;;;;;;14.23;6.90;;;;;;;;;;5064397;28;20780;-63
2022/08/23 02:05:54;;;;;;;12.70;6.20;;;;;;;;;;5070630;28;20048;-63
2022/08/23 02:11:08;;;;;;;10.55;6.10;;;;;;;;;;5061852;28;20067;-63
2022/08/23 02:13:36;;;;;;;10.65;6.90;;;;;;;;;;5064327;28;20487;-64
2022/08/23 02:16:04;;;;;;;12.70;7.38;;;;;;;;;;5063172;28;20053;-63
2022/08/23 02:18:32;;;;;;;15.98;8.20;;;;;;;;;;5064902;28;20471;-63
2022/08/23 02:21:00;;;;;;;17.23;8.90;;;;;;;;;;5060722;28;20044;-63
2022/08/23 02:23:28;;;;;;;14.57;8.82;;;;;;;;;;5065128;28;20131;-63
2022/08/23 02:25:55;;;;;;;15.82;9.20;;;;;;;;;;5063814;28;20088;-63
2022/08/23 02:28:24;;;;;;;12.68;8.10;;;;;;;;;;5063825;28;20090;-63
2022/08/23 02:30:53;;;;;;;11.88;8.15;;;;;;;;;;5062996;28;20171;-62
2022/08/23 02:33:20;;;;;;;18.25;8.77;;;;;;;;;;5063398;28;20060;-63
2022/08/23 02:35:48;;;;;;;18.58;9.45;;;;;;;;;;5062374;28;20047;-63
2022/08/23 02:38:16;;;;;;;14.02;9.30;;;;;;;;;;5059215;28;20053;-63
2022/08/23 02:40:44;;;;;;;16.45;9.20;;;;;;;;;;5061140;28;20381;-63
2022/08/23 02:43:11;;;;;;;19.40;9.32;;;;;;;;;;5061695;28;20875;-63
2022/08/23 02:45:39;;;;;;;17.63;9.75;;;;;;;;;;5059341;28;20449;-63
2022/08/23 02:48:07;;;;;;;20.08;9.52;;;;;;;;;;5056515;28;20053;-63
2022/08/23 02:50:35;;;;;;;17.75;9.88;;;;;;;;;;5065147;28;20044;-64
2022/08/23 02:53:03;;;;;;;19.38;9.43;;;;;;;;;;5063422;28;20078;-64
2022/08/23 02:55:30;;;;;;;22.77;10.23;;;;;;;;;;5064474;28;20102;-63
2022/08/23 02:57:58;;;;;;;17.08;9.75;;;;;;;;;;5055694;28;20052;-63
2022/08/23 03:00:25;;;;;;;16.13;10.50;;;;;;;;;;5066379;28;20582;-63
2022/08/23 03:02:52;;;;;;;17.05;10.38;;;;;;;;;;5063417;28;20137;-64
2022/08/23 03:05:21;;;;;;;15.32;10.00;;;;;;;;;;5067127;28;20064;-64
2022/08/23 03:07:48;;;;;;;18.30;10.45;;;;;;;;;;5066187;28;20091;-63
2022/08/23 03:10:16;;;;;;;14.65;9.95;;;;;;;;;;5064836;28;20546;-63
2022/08/23 03:12:43;;;;;;;16.30;9.52;;;;;;;;;;5063376;28;20123;-63
2022/08/23 03:15:11;;;;;;;16.85;9.60;;;;;;;;;;5063560;28;20056;-64
2022/08/23 03:17:38;;;;;;;14.57;9.55;;;;;;;;;;5061613;28;20139;-63
2022/08/23 03:20:06;;;;;;;16.20;9.65;;;;;;;;;;5064531;28;20104;-63
2022/08/23 03:22:34;;;;;;;18.17;10.93;;;;;;;;;;5065498;28;20048;-63
2022/08/23 03:25:02;;;;;;;15.75;9.73;;;;;;;;;;5062782;28;20727;-62
2022/08/23 03:27:30;;;;;;;15.30;9.45;;;;;;;;;;5062297;28;20045;-63
2022/08/23 03:29:57;;;;;;;16.92;10.50;;;;;;;;;;5061334;28;20110;-62
2022/08/23 03:32:25;;;;;;;18.08;9.95;;;;;;;;;;5064974;28;20501;-63
2022/08/23 03:34:52;;;;;;;11.73;9.10;;;;;;;;;;5066004;28;20056;-63
2022/08/23 03:37:19;;;;;;;12.68;9.68;;;;;;;;;;5068214;28;20048;-63
2022/08/23 03:39:48;;;;;;;19.77;9.32;;;;;;;;;;5062888;28;20057;-63
2022/08/23 03:42:15;;;;;;;16.10;9.02;;;;;;;;;;5063185;28;20060;-63
2022/08/23 03:44:42;;;;;;;12.07;9.13;;;;;;;;;;5065299;28;20493;-64
2022/08/23 03:47:10;;;;;;;17.17;9.63;;;;;;;;;;5067826;28;20044;-63
2022/08/23 03:49:37;;;;;;;15.32;9.70;;;;;;;;;;5066747;28;20060;-63
2022/08/23 03:52:04;;;;;;;17.25;9.85;;;;;;;;;;5066996;28;20102;-63
2022/08/23 03:54:32;;;;;;;16.55;9.25;;;;;;;;;;5067590;28;20049;-63
2022/08/23 03:57:02;;;;;;;20.20;9.27;;;;;;;;;;5067747;28;20041;-63
2022/08/23 03:59:30;;;;;;;15.60;8.45;;;;;;;;;;5063337;28;20051;-63
2022/08/23 04:01:57;;;;;;;12.43;9.02;;;;;;;;;;5070885;28;20529;-63
2022/08/23 04:04:24;;;;;;;13.23;8.75;;;;;;;;;;5067356;28;20098;-63
2022/08/23 04:06:52;;;;;;;15.50;9.23;;;;;;;;;;5066580;28;20102;-63
2022/08/23 04:09:19;;;;;;;11.35;8.88;;;;;;;;;;5065729;28;20110;-63
2022/08/23 04:11:46;;;;;;;13.80;8.50;;;;;;;;;;5065151;28;20542;-63
2022/08/23 04:14:15;;;;;;;14.27;9.30;;;;;;;;;;5064681;28;20055;-63
2022/08/23 04:16:43;;;;;;;16.80;8.15;;;;;;;;;;5065037;28;20581;-64
2022/08/23 04:19:12;;;;;;;11.63;7.97;;;;;;;;;;5062587;28;20056;-63
2022/08/23 04:21:40;;;;;;;11.02;8.25;;;;;;;;;;5061526;28;20116;-62
2022/08/23 04:24:07;;;;;;;14.27;8.45;;;;;;;;;;5059293;28;20130;-63
2022/08/23 04:26:34;;;;;;;10.52;7.93;;;;;;;;;;5058916;28;20106;-63
2022/08/23 04:29:01;;;;;;;12.95;7.70;;;;;;;;;;5067008;28;20048;-63
2022/08/23 04:31:32;;;;;;;9.73;7.00;;;;;;;;;;5067215;28;20045;-64
2022/08/23 04:33:59;;;;;;;13.45;7.50;;;;;;;;;;5065656;28;20055;-63
2022/08/23 04:36:26;;;;;;;10.07;7.10;;;;;;;;;;5063853;28;20463;-64
2022/08/23 04:38:54;;;;;;;11.20;7.82;;;;;;;;;;5061062;28;20049;-64
2022/08/23 04:44:06;;;;;;;9.80;6.28;;;;;;;;;;5061417;28;20542;-63
2022/08/23 04:46:35;;;;;;;8.90;6.60;;;;;;;;;;5062051;28;20113;-64
2022/08/23 04:49:02;;;;;;;10.73;6.55;;;;;;;;;;5067506;28;20059;-63
2022/08/23 04:51:29;;;;;;;9.95;7.18;;;;;;;;;;5063926;28;20067;-63
2022/08/23 04:53:56;;;;;;;11.13;7.38;;;;;;;;;;5063140;28;20080;-63
2022/08/23 04:56:24;;;;;;;12.63;8.45;;;;;;;;;;5063518;28;20052;-63
2022/08/23 04:58:51;;;;;;;14.63;10.30;;;;;;;;;;5066586;28;20075;-64
2022/08/23 05:01:19;;;;;;;11.80;9.10;;;;;;;;;;5066443;28;20059;-63
2022/08/23 05:03:47;;;;;;;16.45;10.55;;;;;;;;;;5066320;28;20048;-63
2022/08/23 05:06:14;;;;;;;13.88;9.73;;;;;;;;;;5060786;28;20060;-63
2022/08/23 05:08:41;;;;;;;17.55;10.05;;;;;;;;;;5064977;28;20066;-62
2022/08/23 05:11:10;;;;;;;11.55;9.23;;;;;;;;;;5064903;28;20399;-62
2022/08/23 05:13:38;;;;;;;12.05;7.88;;;;;;;;;;5064233;28;20070;-63
2022/08/23 05:16:06;;;;;;;10.57;7.68;;;;;;;;;;5065919;28;20075;-62
2022/08/23 05:18:33;;;;;;;8.27;7.40;;;;;;;;;;5064917;28;20048;-64
2022/08/23 05:21:02;;;;;;;8.27;7.10;;;;;;;;;;5065710;28;20136;-63
2022/08/23 05:23:29;;;;;;;11.30;8.10;;;;;;;;;;5066327;28;20052;-63
2022/08/23 05:25:57;;;;;;;15.90;10.32;;;;;;;;;;5060322;28;20053;-64
2022/08/23 05:28:25;;;;;;;14.23;9.75;;;;;;;;;;5058247;28;20049;-63
2022/08/23 05:30:56;;;;;;;14.88;11.02;;;;;;;;;;5057245;28;20106;-63
2022/08/23 05:33:23;;;;;;;15.27;11.38;;;;;;;;;;5062224;28;20052;-63
2022/08/23 05:35:51;;;;;;;17.30;10.45;;;;;;;;;;5062422;28;20128;-63
2022/08/23 05:38:19;;;;;;;16.17;11.00;;;;;;;;;;5060640;28;20127;-63
2022/08/23 05:40:48;;;;;;;12.88;9.95;;;;;;;;;;5065600;28;20045;-63
2022/08/23 05:43:16;;;;;;;15.32;10.55;;;;;;;;;;5064078;28;20113;-63
2022/08/23 05:45:43;;;;;;;15.45;10.13;;;;;;;;;;5063696;28;20075;-63
2022/08/23 05:48:10;;;;;;;15.93;10.52;;;;;;;;;;5060487;28;20047;-63
2022/08/23 05:50:38;;;;;;;24.00;12.02;;;;;;;;;;5063264;28;20060;-63
2022/08/23 05:53:06;;;;;;;14.75;10.75;;;;;;;;;;5066474;28;20506;-63
2022/08/23 05:55:34;;;;;;;20.90;11.43;;;;;;;;;;5065289;28;20048;-64
2022/08/23 05:58:02;;;;;;;18.98;12.48;;;;;;;;;;5064997;28;20053;-63
2022/08/23 06:00:29;;;;;;;20.38;11.73;;;;;;;;;;5069047;28;20174;-63
2022/08/23 06:02:56;;;;;;;15.85;10.88;;;;;;;;;;5064994;28;20044;-64
2022/08/23 06:05:23;;;;;;;19.25;12.57;;;;;;;;;;5065624;28;20052;-63
2022/08/23 06:07:51;;;;;;;16.95;10.77;;;;;;;;;;5065000;28;20052;-64
2022/08/23 06:10:19;;;;;;;19.95;12.40;;;;;;;;;;5065597;28;20518;-63
2022/08/23 06:12:48;;;;;;;19.08;11.23;;;;;;;;;;5063949;28;20234;-64
2022/08/23 06:15:16;;;;;;;19.27;13.15;;;;;;;;;;5064545;28;20152;-63
2022/08/23 06:17:43;;;;;;;20.20;12.05;;;;;;;;;;5062275;28;20048;-64
2022/08/23 06:20:13;;;;;;;23.83;13.07;;;;;;;;;;5057341;28;20431;-63
2022/08/23 06:22:41;;;;;;;17.15;11.77;;;;;;;;;;5060124;28;20078;-63
2022/08/23 06:25:08;;;;;;;19.63;12.35;;;;;;;;;;5059113;28;20493;-64
2022/08/23 06:27:35;;;;;;;21.35;12.50;;;;;;;;;;5061782;28;20352;-63
2022/08/23 06:30:06;;;;;;;17.17;11.80;;;;;;;;;;5058265;28;20848;-65
2022/08/23 06:32:33;;;;;;;21.58;12.32;;;;;;;;;;5061474;28;20044;-64
2022/08/23 06:35:01;;;;;;;17.52;12.60;;;;;;;;;;5056030;28;20613;-63
2022/08/23 06:37:28;;;;;;;22.80;13.32;;;;;;;;;;5060520;28;20045;-64
2022/08/23 06:39:57;;;;;;;19.38;12.63;;;;;;;;;;5059872;28;20084;-63
2022/08/23 06:42:24;;;;;;;17.83;12.55;;;;;;;;;;5057823;28;20048;-64
2022/08/23 06:44:51;;;;;;;18.13;12.40;;;;;;;;;;5062285;28;20750;-63
2022/08/23 06:47:20;;;;;;;17.50;11.98;;;;;;;;;;5065133;28;20048;-63
2022/08/23 06:49:47;;;;;;;15.68;11.95;;;;;;;;;;5053311;28;20056;-64
2022/08/23 06:52:14;;;;;;;17.25;11.40;;;;;;;;;;5057243;28;20128;-63
2022/08/23 06:54:43;;;;;;;22.77;12.07;;;;;;;;;;5058521;28;20064;-64
2022/08/23 06:57:10;;;;;;;14.85;10.63;;;;;;;;;;5062039;28;20132;-63
2022/08/23 06:59:37;;;;;;;22.13;10.38;;;;;;;;;;5059208;28;20458;-63
2022/08/23 07:02:05;;;;;;;20.08;11.07;;;;;;;;;;5063231;28;20045;-63
2022/08/23 07:04:36;;;;;;;16.80;10.23;;;;;;;;;;5066032;28;20049;-63
2022/08/23 07:07:03;;;;;;;22.23;10.48;;;;;;;;;;5059815;28;20171;-63
2022/08/23 07:09:31;;;;;;;16.98;10.35;;;;;;;;;;5063864;28;20094;-64
2022/08/23 07:11:58;;;;;;;17.90;9.32;;;;;;;;;;5062802;28;20106;-64
2022/08/23 07:14:26;;;;;;;16.23;10.07;;;;;;;;;;5065029;28;20044;-63
2022/08/23 07:16:56;;;;;;;17.00;9.30;;;;;;;;;;5060887;28;20045;-64
2022/08/23 07:19:25;;;;;;;14.90;8.55;;;;;;;;;;5065578;28;20047;-64
2022/08/23 07:21:54;;;;;;;15.88;8.90;;;;;;;;;;5064078;28;20084;-64
2022/08/23 07:24:22;;;;;;;15.13;8.40;;;;;;;;;;5066720;28;20052;-63
2022/08/23 07:26:50;;;;;;;14.77;8.48;;;;;;;;;;5062269;28;20048;-63
2022/08/23 07:29:18;;;;;;;14.88;8.15;;;;;;;;;;5064294;28;20067;-64
2022/08/23 07:31:46;;;;;;;18.35;7.53;;;;;;;;;;5061474;28;20507;-63
2022/08/23 07:34:14;;;;;;;16.90;8.48;;;;;;;;;;5066848;28;20041;-64
2022/08/23 07:36:42;;;;;;;15.88;7.72;;;;;;;;;;5064696;28;20049;-64
2022/08/23 07:39:12;;;;;;;18.13;8.27;;;;;;;;;;5060323;28;20044;-64
2022/08/23 07:41:40;;;;;;;14.65;7.80;;;;;;;;;;5063140;28;20056;-63
2022/08/23 07:44:08;;;;;;;14.85;8.23;;;;;;;;;;5059588;28;20061;-63
2022/08/23 07:46:36;;;;;;;15.32;7.88;;;;;;;;;;5055634;28;20048;-64
2022/08/23 07:49:04;;;;;;;13.85;7.53;;;;;;;;;;5061040;28;20044;-63
2022/08/23 07:51:32;;;;;;;12.20;7.47;;;;;;;;;;5058363;28;20052;-63
2022/08/23 07:54:01;;;;;;;14.45;6.78;;;;;;;;;;5063551;28;20114;-63
2022/08/23 07:56:30;;;;;;;12.48;6.50;;;;;;;;;;5065783;28;20520;-64
2022/08/23 07:58:57;;;;;;;9.90;5.00;;;;;;;;;;5064270;28;20063;-64
2022/08/23 08:01:26;;;;;;;9.80;4.75;;;;;;;;;;5067972;28;20048;-64
2022/08/23 08:03:54;;;;;;;14.38;5.00;;;;;;;;;;5064022;28;20052;-64
2022/08/23 08:06:22;;;;;;;11.13;5.25;;;;;;;;;;5068316;28;20056;-65
2022/08/23 08:08:50;;;;;;;11.07;4.53;;;;;;;;;;5062935;28;20048;-64
2022/08/23 08:11:19;;;;;;;13.45;4.80;;;;;;;;;;5063530;28;20052;-64
2022/08/23 08:13:48;;;;;;;7.78;4.50;;;;;;;;;;5067219;28;20059;-63
2022/08/23 08:16:20;;;;;;;8.35;4.72;;;;;;;;;;5061642;28;20037;-63
2022/08/23 08:18:47;;;;;;;11.77;4.45;;;;;;;;;;5065569;28;20292;-64
2022/08/23 08:21:15;;;;;;;7.95;4.47;;;;;;;;;;5061815;28;20056;-63
2022/08/23 08:23:42;;;;;;;9.75;4.03;;;;;;;;;;5061441;28;20061;-64
2022/08/23 08:26:11;;;;;;;11.05;4.35;;;;;;;;;;5061440;28;20060;-64
2022/08/23 08:28:39;;;;;;;8.73;3.15;;;;;;;;;;5065378;28;20066;-64
2022/08/23 08:31:07;;;;;;;9.13;4.28;;;;;;;;;;5063278;28;20496;-64
2022/08/23 08:33:34;;;;;;;8.43;3.95;;;;;;;;;;5062389;28;20056;-65
2022/08/23 08:36:02;;;;;;;7.95;4.10;;;;;;;;;;5063608;28;20044;-64
2022/08/23 08:38:30;;;;;;;7.97;3.58;;;;;;;;;;5066168;28;20041;-64
2022/08/23 08:41:01;;;;;;;8.15;3.42;;;;;;;;;;5062473;28;20093;-64
2022/08/23 08:43:31;;;;;;;7.55;4.53;;;;;;;;;;5062157;28;20053;-64
2022/08/23 08:46:03;;;;;;;12.25;4.90;;;;;;;;;;5063355;28;20776;-64
2022/08/23 08:48:35;;;;;;;9.48;4.90;;;;;;;;;;5062973;28;20045;-64
2022/08/23 08:51:05;;;;;;;12.93;5.13;;;;;;;;;;5064500;28;20045;-64
2022/08/23 08:53:36;;;;;;;12.43;4.78;;;;;;;;;;5058578;28;20097;-64
2022/08/23 08:56:05;;;;;;;12.52;6.47;;;;;;;;;;5060497;28;20090;-63
2022/08/23 08:58:36;;;;;;;8.85;4.28;;;;;;;;;;5062931;28;20041;-65
2022/08/23 09:01:03;;;;;;;8.10;4.88;;;;;;;;;;5066070;28;20052;-64
2022/08/23 09:03:34;;;;;;;10.32;5.30;;;;;;;;;;5060722;28;20055;-64
2022/08/23 09:06:03;;;;;;;8.55;5.68;;;;;;;;;;5061835;28;20250;-64
2022/08/23 09:08:39;;;;;;;10.52;5.60;;;;;;;;;;5063521;28;20047;-64
2022/08/23 09:11:11;;;;;;;8.63;3.70;;;;;;;;;;5064911;28;20049;-65
2022/08/23 09:13:55;;;;;;;8.00;4.50;;;;;;;;;;5059783;28;20492;-64
2022/08/23 09:16:27;;;;;;;20.05;5.82;;;;;;;;;;5062707;28;20048;-63
2022/08/23 09:18:56;;;;;;;8.60;4.65;;;;;;;;;;5075313;28;20155;-64
2022/08/23 09:21:24;;;;;;;12.45;5.20;;;;;;;;;;5060103;28;20465;-63
2022/08/23 09:23:52;;;;;;;9.15;4.72;;;;;;;;;;5066343;28;20148;-64
2022/08/23 09:26:21;;;;;;;10.05;4.70;;;;;;;;;;5061744;28;20048;-64
2022/08/23 09:28:50;;;;;;;12.98;4.60;;;;;;;;;;5059584;28;20628;-64
2022/08/23 09:31:32;;;;;;;12.43;4.55;;;;;;;;;;5060301;28;20063;-63
2022/08/23 09:34:00;;;;;;;14.98;4.55;;;;;;;;;;5063358;28;20067;-64
2022/08/23 09:36:28;;;;;;;9.25;4.18;;;;;;;;;;5062793;28;20048;-64
2022/08/23 09:38:56;;;;;;;10.38;4.53;;;;;;;;;;5058608;28;20052;-64
2022/08/23 09:41:27;;;;;;;19.95;6.40;;;;;;;;;;5057133;28;20076;-63
2022/08/23 09:43:57;;;;;;;12.10;5.20;;;;;;;;;;5059587;28;20128;-63
2022/08/23 09:46:26;;;;;;;8.57;4.85;;;;;;;;;;5059620;28;20122;-63
2022/08/23 09:48:57;;;;;;;11.02;5.00;;;;;;;;;;5060795;28;20103;-65
2022/08/23 09:51:27;;;;;;;14.60;4.97;;;;;;;;;;5062248;28;20068;-64
2022/08/23 09:54:03;;;;;;;9.77;3.65;;;;;;;;;;5059122;28;20199;-64
2022/08/23 09:56:31;;;;;;;7.95;3.35;;;;;;;;;;5057919;28;20045;-64
2022/08/23 09:58:59;;;;;;;9.77;3.90;;;;;;;;;;5060330;28;20056;-63
2022/08/23 10:01:27;;;;;;;7.82;3.55;;;;;;;;;;5061871;28;20059;-65
2022/08/23 10:04:09;;;;;;;8.60;4.43;;;;;;;;;;5057658;28;20877;-64
2022/08/23 10:06:38;;;;;;;12.70;4.75;;;;;;;;;;5056147;28;20400;-64
2022/08/23 10:09:06;;;;;;;12.40;3.80;;;;;;;;;;5066073;28;20450;-64
2022/08/23 10:11:35;;;;;;;10.75;4.45;;;;;;;;;;5060342;28;20044;-64
2022/08/23 10:14:03;;;;;;;10.25;4.28;;;;;;;;;;5063511;28;20056;-63
2022/08/23 10:16:41;;;;;;;8.50;3.80;;;;;;;;;;5062219;28;20107;-63
2022/08/23 10:19:12;;;;;;;9.60;4.03;;;;;;;;;;5064432;28;20052;-64
2022/08/23 10:21:42;;;;;;;10.98;4.43;;;;;;;;;;5065033;28;20564;-64
2022/08/23 10:24:18;;;;;;;12.73;3.72;;;;;;;;;;5062734;28;20044;-64
2022/08/23 10:26:51;;;;;;;13.10;3.67;;;;;;;;;;5057451;28;20049;-64
2022/08/23 10:29:39;;;;;;;10.50;3.70;;;;;;;;;;5060481;28;20912;-64
2022/08/23 10:32:18;;;;;;;8.85;4.22;;;;;;;;;;5062864;28;20087;-64
2022/08/23 10:34:50;;;;;;;10.93;3.95;;;;;;;;;;5053899;28;20059;-65
2022/08/23 10:37:42;;;;;;;11.07;4.55;;;;;;;;;;5062661;28;20052;-64
2022/08/23 10:40:16;;;;;;;8.88;4.35;;;;;;;;;;5060410;28;20094;-64
2022/08/23 10:42:46;;;;;;;8.43;3.88;;;;;;;;;;5059165;28;20049;-63
2022/08/23 10:45:17;;;;;;;6.88;3.80;;;;;;;;;;5062002;28;20139;-64
2022/08/23 10:47:51;;;;;;;12.45;4.72;;;;;;;;;;5061421;28;20048;-64
2022/08/23 10:50:21;;;;;;;7.78;4.05;;;;;;;;;;5066105;28;20044;-64
2022/08/23 10:52:52;;;;;;;9.63;4.13;;;;;;;;;;5063287;28;20634;-63
2022/08/23 10:55:34;;;;;;;8.07;4.03;;;;;;;;;;5069320;28;20507;-64
2022/08/23 10:58:02;;;;;;;11.07;4.40;;;;;;;;;;5063645;28;20049;-63
2022/08/23 11:00:30;;;;;;;6.80;3.40;;;;;;;;;;5059022;28;20060;-64
2022/08/23 11:03:00;;;;;;;9.77;4.20;;;;;;;;;;5064805;28;20045;-64
2022/08/23 11:05:29;;;;;;;12.90;4.28;;;;;;;;;;5066932;28;20051;-63
2022/08/23 11:07:59;;;;;;;7.28;3.63;;;;;;;;;;5064626;28;20048;-64
2022/08/23 11:10:30;;;;;;;12.32;4.50;;;;;;;;;;5061406;28;20036;-64
2022/08/23 11:12:58;;;;;;;7.93;3.65;;;;;;;;;;5065068;28;20543;-64
2022/08/23 11:15:28;;;;;;;11.18;3.58;;;;;;;;;;5063332;28;20048;-65
2022/08/23 11:17:58;;;;;;;8.85;3.97;;;;;;;;;;5064357;28;20502;-64
2022/08/23 11:20:44;;;;;;;10.25;4.65;;;;;;;;;;5062272;28;20051;-64
2022/08/23 11:23:14;;;;;;;9.50;4.00;;;;;;;;;;5057885;28;20056;-64
2022/08/23 11:25:42;;;;;;;9.50;4.80;;;;;;;;;;5058623;28;20482;-64
2022/08/23 11:28:28;;;;;;;11.35;4.18;;;;;;;;;;5063073;28;20048;-63
2022/08/23 11:31:01;;;;;;;9.43;3.90;;;;;;;;;;5055287;28;20616;-64
2022/08/23 11:33:33;;;;;;;11.63;3.97;;;;;;;;;;5060486;28;20132;-64
2022/08/23 11:36:16;;;;;;;12.00;4.32;;;;;;;;;;5058588;28;20851;-64
2022/08/23 11:39:17;;;;;;;13.40;5.38;;;;;;;;;;5056735;28;20124;-64
2022/08/23 11:42:07;;;;;;;10.60;5.93;;;;;;;;;;4978865;28;20062;-66
2022/08/23 11:44:36;;;;;;;11.63;6.10;;;;;;;;;;4974227;28;20090;-65
2022/08/23 11:47:06;;;;;;;14.75;5.25;;;;;;;;;;5027457;28;20053;-64
2022/08/23 11:49:51;;;;;;;10.35;4.95;;;;;;;;;;5063588;28;20135;-65
2022/08/23 11:52:35;;;;;;;15.55;5.28;;;;;;;;;;5059990;28;20048;-64
2022/08/23 11:55:17;;;;;;;11.23;4.80;;;;;;;;;;5066056;28;20071;-65
2022/08/23 11:57:50;;;;;;;12.90;4.85;;;;;;;;;;5053744;28;20140;-64
2022/08/23 12:00:19;;;;;;;11.63;5.30;;;;;;;;;;5067197;28;20056;-64
2022/08/23 12:03:00;;;;;;;14.88;4.68;;;;;;;;;;5066948;28;20507;-64
2022/08/23 12:05:41;;;;;;;9.73;4.78;;;;;;;;;;5070099;28;20135;-64
2022/08/23 12:08:26;;;;;;;10.55;5.10;;;;;;;;;;5066236;28;20052;-65
2022/08/23 12:11:08;;;;;;;12.88;4.68;;;;;;;;;;5061652;28;20055;-65
2022/08/23 12:13:48;;;;;;;9.98;3.80;;;;;;;;;;5056699;28;20056;-65
2022/08/23 12:16:28;;;;;;;13.20;4.57;;;;;;;;;;5062772;28;20056;-65
2022/08/23 12:18:56;;;;;;;11.43;4.50;;;;;;;;;;5063026;28;20089;-64
2022/08/23 12:21:25;;;;;;;13.27;7.97;;;;;;;;;;5064493;28;20044;-65
2022/08/23 12:23:53;;;;;;;10.57;7.88;;;;;;;;;;5060766;28;20516;-64
2022/08/23 12:26:25;;;;;;;13.15;6.72;;;;;;;;;;5062114;28;20404;-64
2022/08/23 12:28:57;;;;;;;16.42;7.68;;;;;;;;;;5063174;28;20045;-64
2022/08/23 12:31:29;;;;;;;14.25;7.20;;;;;;;;;;5064914;28;20080;-65
2022/08/23 12:34:01;;;;;;;12.40;6.72;;;;;;;;;;5062403;28;20059;-66
2022/08/23 12:36:33;;;;;;;14.85;6.70;;;;;;;;;;5062635;28;20053;-64
2022/08/23 12:39:03;;;;;;;16.40;8.63;;;;;;;;;;5063041;28;20055;-65
2022/08/23 12:41:32;;;;;;;14.40;7.03;;;;;;;;;;5057614;28;20045;-65
2022/08/23 12:44:03;;;;;;;13.52;6.95;;;;;;;;;;5060144;28;20057;-65
2022/08/23 12:46:31;;;;;;;9.32;6.55;;;;;;;;;;5061919;28;20059;-65
2022/08/23 12:49:00;;;;;;;10.27;4.78;;;;;;;;;;5068765;28;20052;-65
2022/08/23 12:51:28;;;;;;;11.55;4.45;;;;;;;;;;5059968;28;20080;-65
2022/08/23 12:53:55;;;;;;;10.80;4.90;;;;;;;;;;5069205;28;20056;-64
2022/08/23 12:56:24;;;;;;;15.30;5.55;;;;;;;;;;5063425;28;20161;-64
2022/08/23 12:58:53;;;;;;;16.48;6.03;;;;;;;;;;5067166;28;20122;-64
2022/08/23 13:01:22;;;;;;;14.82;7.57;;;;;;;;;;5063487;28;20147;-65
2022/08/23 13:03:51;;;;;;;15.85;9.45;;;;;;;;;;5065889;28;20407;-66
2022/08/23 13:06:21;;;;;;;13.13;6.75;;;;;;;;;;5066247;28;20084;-66
2022/08/23 13:08:50;;;;;;;15.02;8.02;;;;;;;;;;5068715;28;20052;-65
2022/08/23 13:11:19;;;;;;;17.20;8.60;;;;;;;;;;5055609;28;20044;-65
2022/08/23 13:13:47;;;;;;;11.55;6.95;;;;;;;;;;5061788;28;20101;-65
2022/08/23 13:16:27;;;;;;;14.02;7.20;;;;;;;;;;5064795;28;20060;-65
2022/08/23 13:18:55;;;;;;;14.95;8.60;;;;;;;;;;5063693;28;20083;-66
2022/08/23 13:21:27;;;;;;;13.25;5.82;;;;;;;;;;5058682;28;20206;-65
2022/08/23 13:23:55;;;;;;;13.57;6.80;;;;;;;;;;5064077;28;20543;-66
2022/08/23 13:26:45;;;;;;;11.90;6.72;;;;;;;;;;5063446;28;20114;-65
2022/08/23 13:29:20;;;;;;;16.80;9.23;;;;;;;;;;5062562;28;20036;-66
2022/08/23 13:32:00;;;;;;;14.32;7.40;;;;;;;;;;5061320;28;20051;-65
2022/08/23 13:34:35;;;;;;;22.35;8.65;;;;;;;;;;5065678;28;21511;-64
2022/08/23 13:37:03;;;;;;;15.57;7.47;;;;;;;;;;5059127;28;20055;-65
2022/08/23 13:39:31;;;;;;;17.42;7.25;;;;;;;;;;5055497;28;20047;-63
2022/08/23 13:41:58;;;;;;;16.95;6.28;;;;;;;;;;5060019;28;20048;-64
2022/08/23 13:44:26;;;;;;;10.80;5.65;;;;;;;;;;5063031;28;20040;-66
2022/08/23 13:46:54;;;;;;;13.10;6.05;;;;;;;;;;5058269;28;20068;-65
2022/08/23 13:49:26;;;;;;;14.38;8.35;;;;;;;;;;5060447;28;20052;-65
2022/08/23 13:51:53;;;;;;;;;;;;;;;;;;5058569;28;20842;-65
2022/08/23 13:54:20;;;;;;;13.77;7.30;;;;;;;;;;5063746;28;19932;-64
2022/08/23 13:56:48;;;;;;;14.07;7.30;;;;;;;;;;5059749;28;20052;-64
2022/08/23 13:59:19;;;;;;;18.88;7.55;;;;;;;;;;5060028;28;20045;-65
2022/08/23 14:01:46;;;;;;;16.42;7.05;;;;;;;;;;5065286;28;20586;-65
2022/08/23 14:04:14;;;;;;;14.45;7.25;;;;;;;;;;5066827;28;20043;-64
2022/08/23 14:06:43;;;;;;;14.80;6.90;;;;;;;;;;5062472;28;20044;-64
2022/08/23 14:09:10;;;;;;;17.90;8.25;;;;;;;;;;5064323;28;20052;-64
2022/08/23 14:11:37;;;;;;;17.33;8.77;;;;;;;;;;5063448;28;20388;-65
2022/08/23 14:14:05;;;;;;;15.18;8.10;;;;;;;;;;5064244;28;20056;-65
2022/08/23 14:16:36;;;;;;;16.92;6.70;;;;;;;;;;5062920;28;20060;-64
2022/08/23 14:19:04;;;;;;;14.45;7.60;;;;;;;;;;5060087;28;20169;-64
2022/08/23 14:21:31;;;;;;;15.43;5.75;;;;;;;;;;5063137;28;20044;-65
2022/08/23 14:23:59;;;;;;;10.50;5.55;;;;;;;;;;5060380;28;20041;-65
2022/08/23 14:26:27;;;;;;;16.60;6.63;;;;;;;;;;5066441;28;20419;-65
2022/08/23 14:28:54;;;;;;;9.88;5.30;;;;;;;;;;5059602;28;20048;-65
2022/08/23 14:31:22;;;;;;;12.45;6.40;;;;;;;;;;5058628;28;20050;-65
2022/08/23 14:33:50;;;;;;;8.40;4.93;;;;;;;;;;5059175;28;20459;-65
2022/08/23 14:36:17;;;;;;;13.05;6.25;;;;;;;;;;5065252;28;20045;-64
2022/08/23 14:38:45;;;;;;;10.57;6.20;;;;;;;;;;5059527;28;20056;-65
2022/08/23 14:41:16;;;;;;;11.35;6.38;;;;;;;;;;5062353;28;20545;-65
2022/08/23 14:43:44;;;;;;;11.77;5.78;;;;;;;;;;5065750;28;20538;-64
2022/08/23 14:46:11;;;;;;;15.75;5.93;;;;;;;;;;5062900;28;20060;-64
2022/08/23 14:48:38;;;;;;;12.68;6.18;;;;;;;;;;5062770;28;20514;-65
2022/08/23 14:51:05;;;;;;;12.35;5.07;;;;;;;;;;5061805;28;20063;-65
2022/08/23 14:53:34;;;;;;;12.80;5.93;;;;;;;;;;5058721;28;20487;-66
2022/08/23 14:56:01;;;;;;;10.48;6.30;;;;;;;;;;5058842;28;20080;-65